Terminal Aerodrome Forecast
Issued by NWS Louisville, KY

Home | Current Version | Previous Version | Text Only | Print | Product List | Glossary On
Versions: 1 2 3 4 5 6 7 8 9 10 11 12 13 14 15 16
000
FTUS43 KLMK 231100
TAFBWG
TAF
KBWG 231120Z 2312/2412 23006KT P6SM SCT050
     FM232000 26006KT P6SM VCTS SCT045CB
     FM232300 31006KT P6SM VCTS BKN050CB
     FM240300 33005KT P6SM BKN050=

USA.gov is the U.S. government's official web portal to all federal, state and local government web resources and services.